createdAt,value
2023-10-02T00:02:44.767Z,6.23
2023-10-02T00:05:42.728Z,7.03
2023-10-02T00:08:41.644Z,5.07
2023-10-02T00:11:40.856Z,4.43
2023-10-02T00:14:36.306Z,7.90
2023-10-02T00:17:26.850Z,4.83
2023-10-02T00:20:23.718Z,4.50
2023-10-02T00:23:13.633Z,6.63
2023-10-02T00:26:05.444Z,4.10
2023-10-02T00:28:54.124Z,4.50
2023-10-02T00:31:45.771Z,5.57
2023-10-02T00:34:37.438Z,5.17
2023-10-02T00:37:45.109Z,5.23
2023-10-02T00:40:34.140Z,5.90
2023-10-02T00:43:36.503Z,5.77
2023-10-02T00:46:25.820Z,4.17
2023-10-02T00:49:26.689Z,5.60
2023-10-02T00:52:17.001Z,4.97
2023-10-02T00:55:07.378Z,6.20
2023-10-02T00:57:58.822Z,4.63
2023-10-02T01:00:52.092Z,4.90
2023-10-02T01:04:01.355Z,7.17
2023-10-02T01:07:06.854Z,5.23
2023-10-02T01:10:09.439Z,5.90
2023-10-02T01:13:03.501Z,6.17
2023-10-02T01:15:52.320Z,8.87
2023-10-02T01:18:41.825Z,5.10
2023-10-02T01:21:31.501Z,7.40
2023-10-02T01:24:24.246Z,6.13
2023-10-02T01:27:13.080Z,5.90
2023-10-02T01:30:16.056Z,8.23
2023-10-02T01:33:15.526Z,5.40
2023-10-02T01:36:04.998Z,5.27
2023-10-02T01:38:56.606Z,5.23
2023-10-02T01:41:50.231Z,5.30
2023-10-02T01:44:56.362Z,5.67
2023-10-02T01:47:45.120Z,5.40
2023-10-02T01:50:33.612Z,4.17
2023-10-02T01:53:31.319Z,9.43
2023-10-02T01:56:21.290Z,4.23
2023-10-02T01:59:12.271Z,5.60
2023-10-02T02:02:14.260Z,4.60
2023-10-02T02:05:05.450Z,5.77
2023-10-02T02:07:55.286Z,9.53
2023-10-02T02:10:43.646Z,5.67
2023-10-02T02:13:41.529Z,4.87
2023-10-02T02:16:35.566Z,6.03
2023-10-02T02:19:24.904Z,5.90
2023-10-02T02:22:13.563Z,5.10
2023-10-02T02:25:02.403Z,5.37
2023-10-02T02:27:52.246Z,5.90
2023-10-02T02:30:43.884Z,6.60
2023-10-02T02:33:39.639Z,6.70
2023-10-02T02:36:29.672Z,6.20
2023-10-02T02:39:21.892Z,5.37
2023-10-02T02:42:19.881Z,6.23
2023-10-02T02:45:26.037Z,7.30
2023-10-02T02:48:17.450Z,5.30
2023-10-02T02:51:16.426Z,6.10
2023-10-02T02:54:06.569Z,7.10
2023-10-02T02:56:59.637Z,6.43
2023-10-02T02:59:48.517Z,5.60
2023-10-02T03:02:36.045Z,6.23
2023-10-02T03:05:39.211Z,4.93
2023-10-02T03:08:39.104Z,5.37
2023-10-02T03:11:30.528Z,6.87
2023-10-02T03:14:21.087Z,6.27
2023-10-02T03:17:23.617Z,7.27
2023-10-02T03:20:25.465Z,6.73
2023-10-02T03:23:13.872Z,5.53
2023-10-02T03:26:09.302Z,4.93
2023-10-02T03:29:03.786Z,5.67
2023-10-02T03:31:53.559Z,7.00
2023-10-02T03:34:49.627Z,7.17
2023-10-02T03:37:38.248Z,6.80
2023-10-02T03:40:28.542Z,6.70
2023-10-02T03:43:35.684Z,4.83
2023-10-02T03:46:25.137Z,7.17
2023-10-02T03:49:13.815Z,6.47
2023-10-02T03:52:02.399Z,5.90
2023-10-02T03:54:55.719Z,7.23
2023-10-02T03:57:54.256Z,5.63
2023-10-02T04:00:45.996Z,5.53
2023-10-02T04:03:34.827Z,5.80
2023-10-02T04:06:34.876Z,9.10
2023-10-02T04:09:25.307Z,7.23
2023-10-02T04:12:14.073Z,9.50
2023-10-02T04:15:05.507Z,7.73
2023-10-02T04:17:54.849Z,7.27
2023-10-02T04:20:53.236Z,7.77
2023-10-02T04:23:44.282Z,7.40
2023-10-02T04:26:34.844Z,6.80
2023-10-02T04:29:30.241Z,7.20
2023-10-02T04:32:20.950Z,7.13
2023-10-02T04:35:34.038Z,7.30
2023-10-02T04:38:42.518Z,7.93
2023-10-02T04:41:32.933Z,7.20
2023-10-02T04:44:21.278Z,7.23
2023-10-02T04:47:11.133Z,7.50
2023-10-02T04:50:18.118Z,8.53
2023-10-02T04:53:21.348Z,8.90
2023-10-02T04:56:23.087Z,7.90
2023-10-02T04:59:12.886Z,7.83
2023-10-02T05:02:19.345Z,8.00
2023-10-02T05:05:09.288Z,7.80
2023-10-02T05:07:57.753Z,8.93
2023-10-02T05:10:48.618Z,8.87
2023-10-02T05:13:55.253Z,8.77
2023-10-02T05:16:47.530Z,8.23
2023-10-02T05:19:58.136Z,9.10
2023-10-02T05:22:58.993Z,8.50
2023-10-02T05:25:49.047Z,7.83
2023-10-02T05:28:45.884Z,8.20
2023-10-02T05:31:36.923Z,8.27
2023-10-02T05:34:25.444Z,8.70
2023-10-02T05:37:14.596Z,8.67
2023-10-02T05:40:22.334Z,10.33
2023-10-02T05:43:19.073Z,9.33
2023-10-02T05:46:08.318Z,8.60
2023-10-02T05:49:02.585Z,8.53
2023-10-02T05:51:56.773Z,8.50
2023-10-02T05:54:49.235Z,8.57
2023-10-02T05:57:37.924Z,9.87
2023-10-02T06:00:37.030Z,8.97
2023-10-02T06:03:25.835Z,8.80
2023-10-02T06:06:22.651Z,9.00
2023-10-02T06:09:17.839Z,9.67
2023-10-02T06:12:07.422Z,10.47
2023-10-02T06:14:56.176Z,9.30
2023-10-02T06:17:47.234Z,7.80
2023-10-02T06:20:35.868Z,9.53
2023-10-02T06:23:25.785Z,8.47
2023-10-02T06:26:15.574Z,10.80
2023-10-02T06:29:17.670Z,10.43
2023-10-02T06:32:11.421Z,10.20
2023-10-02T06:35:05.591Z,10.57
2023-10-02T06:37:55.770Z,10.23
2023-10-02T06:40:57.246Z,9.83
2023-10-02T06:43:48.090Z,10.93
2023-10-02T06:46:55.688Z,14.07
2023-10-02T06:49:46.617Z,11.63
2023-10-02T06:52:36.381Z,9.10
2023-10-02T06:55:26.349Z,10.00
2023-10-02T06:58:16.384Z,10.10
2023-10-02T07:01:05.338Z,10.00
2023-10-02T07:03:54.544Z,12.30
2023-10-02T07:06:43.099Z,13.73
2023-10-02T07:09:36.906Z,13.43
2023-10-02T07:12:29.666Z,11.70
2023-10-02T07:15:23.791Z,15.07
2023-10-02T07:18:13.588Z,12.90
2023-10-02T07:21:02.059Z,9.87
2023-10-02T07:23:50.761Z,10.60
2023-10-02T07:26:52.805Z,13.03
2023-10-02T07:29:44.216Z,11.23
2023-10-02T07:32:35.772Z,11.47
2023-10-02T07:35:24.490Z,12.03
2023-10-02T07:38:12.939Z,9.17
2023-10-02T07:41:08.161Z,12.70
2023-10-02T07:44:09.002Z,12.70
2023-10-02T07:46:57.775Z,12.40
2023-10-02T07:49:49.958Z,13.67
2023-10-02T07:52:40.131Z,11.50
2023-10-02T07:55:29.317Z,12.03
2023-10-02T07:58:21.201Z,11.00
2023-10-02T08:01:14.209Z,9.43
2023-10-02T08:04:04.201Z,9.97
2023-10-02T08:07:04.712Z,9.30
2023-10-02T08:10:01.499Z,9.93
2023-10-02T08:12:57.632Z,7.97
2023-10-02T08:15:46.947Z,11.83
2023-10-02T08:18:57.393Z,9.83
2023-10-02T08:21:49.033Z,9.23
2023-10-02T08:24:39.368Z,7.80
2023-10-02T08:27:27.958Z,9.53
2023-10-02T08:30:29.441Z,8.90
2023-10-02T08:33:32.652Z,9.27
2023-10-02T08:36:29.881Z,7.60
2023-10-02T08:39:23.663Z,8.50
2023-10-02T08:42:12.453Z,8.70
2023-10-02T08:45:01.940Z,11.20
2023-10-02T08:47:50.698Z,8.37
2023-10-02T08:50:39.264Z,6.97
2023-10-02T08:53:29.606Z,7.63
2023-10-02T08:56:38.918Z,12.40
2023-10-02T08:59:29.153Z,8.80
2023-10-02T09:02:19.948Z,6.70
2023-10-02T09:05:13.025Z,6.97
2023-10-02T09:08:07.827Z,7.63
2023-10-02T09:10:59.887Z,7.50
2023-10-02T09:14:14.016Z,6.67
2023-10-02T09:17:18.488Z,6.43
2023-10-02T09:20:09.221Z,6.33
2023-10-02T09:23:09.473Z,7.83
2023-10-02T09:26:18.592Z,7.10
2023-10-02T09:29:08.491Z,5.40
2023-10-02T09:31:57.378Z,6.30
2023-10-02T09:35:37.602Z,6.73
2023-10-02T09:38:17.389Z,7.28
2023-10-02T09:41:16.854Z,5.93
2023-10-02T09:44:17.432Z,9.00
2023-10-02T09:47:06.178Z,5.80
2023-10-02T09:50:13.360Z,6.80
2023-10-02T09:53:10.964Z,6.43
2023-10-02T09:56:11.857Z,7.50
2023-10-02T09:59:17.442Z,9.15
2023-10-02T10:02:40.462Z,7.07
2023-10-02T10:05:48.091Z,8.07
2023-10-02T10:09:27.323Z,6.60
2023-10-02T10:12:33.472Z,7.00
2023-10-02T10:15:27.024Z,5.50
2023-10-02T10:18:15.969Z,6.38
2023-10-02T10:21:54.146Z,7.40
2023-10-02T10:25:20.910Z,6.78
2023-10-02T10:28:15.523Z,6.00
2023-10-02T10:31:10.516Z,6.30
2023-10-02T10:34:01.182Z,6.15
2023-10-02T10:36:48.815Z,6.90
2023-10-02T10:40:25.006Z,6.78
2023-10-02T10:43:16.912Z,8.15
2023-10-02T10:46:13.865Z,7.40
2023-10-02T10:49:10.270Z,9.57
2023-10-02T10:52:00.833Z,6.35
2023-10-02T10:54:57.773Z,6.45
2023-10-02T10:57:52.864Z,10.35
2023-10-02T11:00:50.742Z,6.10
2023-10-02T11:03:40.378Z,5.82
2023-10-02T11:06:30.230Z,5.03
2023-10-02T11:09:20.621Z,5.95
2023-10-02T11:12:13.806Z,7.80
2023-10-02T11:15:02.379Z,5.65
2023-10-02T11:17:52.369Z,5.60
2023-10-02T11:20:40.769Z,7.63
2023-10-02T11:23:39.548Z,5.30
2023-10-02T11:26:28.004Z,4.65
2023-10-02T11:29:22.252Z,5.35
2023-10-02T11:32:22.816Z,5.82
2023-10-02T11:35:12.806Z,6.07
2023-10-02T11:38:02.539Z,8.63
2023-10-02T11:40:51.214Z,5.90
2023-10-02T11:43:39.837Z,6.18
2023-10-02T11:46:28.864Z,7.35
2023-10-02T11:49:17.246Z,6.85
2023-10-02T11:52:07.243Z,6.20
2023-10-02T11:54:56.373Z,6.65
2023-10-02T11:57:44.747Z,7.20
2023-10-02T12:00:33.343Z,6.30
2023-10-02T12:03:21.818Z,6.88
2023-10-02T12:06:14.046Z,7.82
2023-10-02T12:09:04.536Z,8.73
2023-10-02T12:11:53.152Z,6.85
2023-10-02T12:14:44.029Z,6.50
2023-10-02T12:17:33.388Z,8.38
2023-10-02T12:20:24.513Z,6.60
2023-10-02T12:23:13.137Z,6.45
2023-10-02T12:26:05.605Z,6.93
2023-10-02T12:28:54.013Z,8.48
2023-10-02T12:31:43.781Z,7.20
2023-10-02T12:34:32.446Z,9.48
2023-10-02T12:37:21.693Z,8.60
2023-10-02T12:40:13.718Z,6.55
2023-10-02T12:43:04.555Z,7.63
2023-10-02T12:45:54.364Z,8.07
2023-10-02T12:48:43.444Z,8.13
2023-10-02T12:51:32.606Z,9.32
2023-10-02T12:54:21.646Z,10.07
2023-10-02T12:57:10.340Z,6.70
2023-10-02T13:00:00.185Z,6.80
2023-10-02T13:02:49.182Z,7.47
2023-10-02T13:05:38.018Z,6.97
2023-10-02T13:08:28.062Z,8.23
2023-10-02T13:11:20.075Z,10.43
2023-10-02T13:14:09.973Z,7.85
2023-10-02T13:17:00.198Z,6.80
2023-10-02T13:19:48.550Z,11.68
2023-10-02T13:22:37.374Z,9.95
2023-10-02T13:25:28.122Z,6.43
2023-10-02T13:28:17.831Z,6.30
2023-10-02T13:31:14.433Z,6.32
2023-10-02T13:34:06.877Z,6.10
2023-10-02T13:36:55.423Z,6.05
2023-10-02T13:39:44.708Z,6.53
2023-10-02T13:42:33.425Z,6.70
2023-10-02T13:45:22.583Z,5.40
2023-10-02T13:48:10.944Z,6.60
2023-10-02T13:51:04.361Z,5.95
2023-10-02T13:53:55.138Z,6.18
2023-10-02T13:56:43.544Z,6.28
2023-10-02T13:59:32.943Z,5.72
2023-10-02T14:02:21.477Z,5.63
2023-10-02T14:05:12.392Z,6.43
2023-10-02T14:08:02.236Z,4.80
2023-10-02T14:10:50.691Z,5.38
2023-10-02T14:13:39.265Z,4.43
2023-10-02T14:16:27.824Z,4.75
2023-10-02T14:19:17.298Z,4.32
2023-10-02T14:22:08.008Z,4.30
2023-10-02T14:24:57.843Z,4.78
2023-10-02T14:27:47.199Z,4.60
2023-10-02T14:30:36.073Z,5.20
2023-10-02T14:33:25.672Z,5.15
2023-10-02T14:36:14.363Z,5.00
2023-10-02T14:39:05.214Z,4.83
2023-10-02T14:41:55.474Z,6.50
2023-10-02T14:44:44.837Z,6.43
2023-10-02T14:47:33.798Z,4.97
2023-10-02T14:50:24.507Z,5.20
2023-10-02T14:53:13.317Z,5.37
2023-10-02T14:56:05.534Z,5.20
2023-10-02T14:58:55.592Z,5.13
2023-10-02T15:01:44.102Z,4.50
2023-10-02T15:04:32.603Z,4.87
2023-10-02T15:07:21.190Z,4.87
2023-10-02T15:10:11.802Z,5.00
2023-10-02T15:13:01.363Z,6.13
2023-10-02T15:15:51.852Z,5.20
2023-10-02T15:18:40.915Z,4.73
2023-10-02T15:21:29.693Z,6.20
2023-10-02T15:24:19.263Z,5.40
2023-10-02T15:27:07.729Z,5.20
2023-10-02T15:29:56.183Z,5.47
2023-10-02T15:32:47.366Z,5.70
2023-10-02T15:35:35.872Z,5.53
2023-10-02T15:38:24.510Z,6.73
2023-10-02T15:41:28.350Z,19.07
2023-10-02T15:44:19.547Z,21.93
2023-10-02T15:47:14.956Z,73.30
2023-10-02T15:50:09.595Z,51.30
2023-10-02T15:53:04.891Z,45.73
2023-10-02T15:55:53.415Z,35.80
2023-10-02T15:58:41.876Z,34.50
2023-10-02T16:01:30.198Z,38.03
2023-10-02T16:04:19.422Z,27.20
2023-10-02T16:07:09.838Z,24.60
2023-10-02T16:10:00.244Z,26.17
2023-10-02T16:12:51.387Z,14.23
2023-10-02T16:15:40.010Z,12.40
2023-10-02T16:18:28.467Z,18.00
2023-10-02T16:21:22.192Z,15.03
2023-10-02T16:24:12.242Z,13.23
2023-10-02T16:27:00.634Z,16.87
2023-10-02T16:29:49.021Z,11.67
2023-10-02T16:32:37.680Z,11.87
2023-10-02T16:35:31.438Z,19.20
2023-10-02T16:38:21.116Z,14.03
2023-10-02T16:41:13.416Z,8.73
2023-10-02T16:44:05.693Z,8.10
2023-10-02T16:46:54.781Z,8.70
2023-10-02T16:49:46.057Z,9.63
2023-10-02T16:52:34.910Z,9.73
2023-10-02T16:55:26.800Z,8.27
2023-10-02T16:58:19.018Z,11.07
2023-10-02T17:01:11.160Z,17.10
2023-10-02T17:03:59.687Z,15.40
2023-10-02T17:06:48.158Z,11.10
2023-10-02T17:09:36.540Z,13.63
2023-10-02T17:12:25.448Z,10.33
2023-10-02T17:15:16.898Z,9.60
2023-10-02T17:18:07.192Z,9.43
2023-10-02T17:20:55.657Z,9.00
2023-10-02T17:23:44.190Z,9.73
2023-10-02T17:26:32.942Z,7.97
2023-10-02T17:29:21.422Z,9.00
2023-10-02T17:32:11.350Z,11.73
2023-10-02T17:35:00.669Z,9.10
2023-10-02T17:37:49.556Z,7.93
2023-10-02T17:40:38.018Z,9.17
2023-10-02T17:43:26.680Z,9.50
2023-10-02T17:46:15.159Z,7.90
2023-10-02T17:49:05.835Z,6.83
2023-10-02T17:51:54.934Z,9.10
2023-10-02T17:54:44.137Z,8.33
2023-10-02T17:57:32.582Z,11.27
2023-10-02T18:00:22.048Z,11.43
2023-10-02T18:03:12.221Z,8.03
2023-10-02T18:06:02.215Z,10.17
2023-10-02T18:08:51.659Z,9.90
2023-10-02T18:11:40.112Z,9.73
2023-10-02T18:14:28.533Z,9.77
2023-10-02T18:17:17.257Z,9.40
2023-10-02T18:20:07.772Z,9.90
2023-10-02T18:22:57.728Z,10.97
2023-10-02T18:25:54.440Z,10.17
2023-10-02T18:28:44.774Z,11.77
2023-10-02T18:31:34.838Z,12.80
2023-10-02T18:34:40.177Z,11.50
2023-10-02T18:37:31.447Z,13.87
2023-10-02T18:40:21.739Z,14.57
2023-10-02T18:43:10.393Z,10.50
2023-10-02T18:46:03.353Z,10.60
2023-10-02T18:48:52.246Z,11.73
2023-10-02T18:51:40.970Z,9.80
2023-10-02T18:54:29.727Z,10.80
2023-10-02T18:57:19.808Z,15.90
2023-10-02T19:00:12.575Z,12.50
2023-10-02T19:03:03.545Z,13.00
2023-10-02T19:05:53.057Z,11.63
2023-10-02T19:08:41.755Z,16.10
2023-10-02T19:11:30.375Z,9.63
2023-10-02T19:14:23.190Z,11.17
2023-10-02T19:17:13.362Z,12.60
2023-10-02T19:20:06.557Z,10.40
2023-10-02T19:22:55.301Z,12.30
2023-10-02T19:25:47.713Z,12.43
2023-10-02T19:28:36.352Z,9.40
2023-10-02T19:31:26.393Z,10.00
2023-10-02T19:34:15.409Z,11.50
2023-10-02T19:37:03.866Z,9.10
2023-10-02T19:39:52.327Z,10.23
2023-10-02T19:42:40.945Z,10.27
2023-10-02T19:45:29.332Z,11.53
2023-10-02T19:48:19.222Z,16.73
2023-10-02T19:51:09.473Z,14.10
2023-10-02T19:53:58.357Z,12.00
2023-10-02T19:56:46.768Z,11.73
2023-10-02T19:59:35.233Z,11.37
2023-10-02T20:02:23.777Z,9.13
2023-10-02T20:05:14.761Z,11.00
2023-10-02T20:08:03.362Z,12.00
2023-10-02T20:10:55.100Z,15.50
2023-10-02T20:13:43.625Z,12.03
2023-10-02T20:16:32.253Z,10.53
2023-10-02T20:19:22.000Z,13.67
2023-10-02T20:22:12.383Z,11.73
2023-10-02T20:25:01.180Z,10.77
2023-10-02T20:27:51.023Z,11.13
2023-10-02T20:30:41.571Z,11.60
2023-10-02T20:33:33.216Z,11.40
2023-10-02T20:36:22.231Z,13.10
2023-10-02T20:39:16.763Z,14.93
2023-10-02T20:42:06.741Z,11.17
2023-10-02T20:44:55.214Z,11.77
2023-10-02T20:47:43.817Z,11.37
2023-10-02T20:50:34.070Z,12.00
2023-10-02T20:53:22.883Z,12.00
2023-10-02T20:56:12.824Z,12.00
2023-10-02T20:59:01.873Z,12.17
2023-10-02T21:01:50.667Z,10.80
2023-10-02T21:04:39.559Z,13.70
2023-10-02T21:07:28.321Z,9.50
2023-10-02T21:10:18.403Z,10.67
2023-10-02T21:13:09.156Z,10.17
2023-10-02T21:15:57.923Z,10.07
2023-10-02T21:18:47.499Z,12.40
2023-10-02T21:21:36.068Z,14.97
2023-10-02T21:24:24.636Z,11.90
2023-10-02T21:27:13.192Z,15.60
2023-10-02T21:30:03.709Z,12.33
2023-10-02T21:32:52.142Z,10.00
2023-10-02T21:35:41.250Z,14.80
2023-10-02T21:38:30.122Z,11.20
2023-10-02T21:41:20.536Z,11.77
2023-10-02T21:44:10.892Z,11.80
2023-10-02T21:47:00.740Z,10.60
2023-10-02T21:49:49.694Z,11.90
2023-10-02T21:52:40.940Z,8.00
2023-10-02T21:55:30.925Z,12.87
2023-10-02T21:58:20.034Z,8.83
2023-10-02T22:01:12.262Z,13.17
2023-10-02T22:04:04.049Z,8.27
2023-10-02T22:06:54.054Z,8.53
2023-10-02T22:09:43.152Z,9.10
2023-10-02T22:12:32.647Z,8.77
2023-10-02T22:15:23.429Z,7.60
2023-10-02T22:18:12.388Z,11.90
2023-10-02T22:21:12.762Z,8.97
2023-10-02T22:24:01.954Z,8.80
2023-10-02T22:26:50.807Z,8.83
2023-10-02T22:29:40.033Z,9.63
2023-10-02T22:32:30.244Z,10.40
2023-10-02T22:35:20.810Z,8.97
2023-10-02T22:38:11.846Z,11.00
2023-10-02T22:41:01.503Z,8.80
2023-10-02T22:43:53.016Z,7.13
2023-10-02T22:46:42.746Z,8.60
2023-10-02T22:49:31.965Z,11.47
2023-10-02T22:52:21.827Z,8.70
2023-10-02T22:55:13.144Z,8.93
2023-10-02T22:58:02.635Z,8.10
2023-10-02T23:00:51.485Z,8.87
2023-10-02T23:03:40.491Z,8.87
2023-10-02T23:06:30.978Z,9.33
2023-10-02T23:09:20.128Z,9.87
2023-10-02T23:12:10.995Z,10.37
2023-10-02T23:15:00.252Z,9.30
2023-10-02T23:17:49.102Z,9.43
2023-10-02T23:20:37.813Z,13.07
2023-10-02T23:23:26.844Z,8.47
2023-10-02T23:26:18.665Z,8.70
2023-10-02T23:29:08.896Z,12.03
2023-10-02T23:31:57.371Z,9.30
2023-10-02T23:34:46.485Z,9.40
2023-10-02T23:37:35.936Z,7.80
2023-10-02T23:40:25.980Z,9.33
2023-10-02T23:43:21.028Z,8.07
2023-10-02T23:46:11.295Z,9.00
2023-10-02T23:49:00.980Z,7.90
2023-10-02T23:51:52.661Z,8.20
2023-10-02T23:54:42.507Z,10.37
2023-10-02T23:57:30.904Z,10.30
